createdAt,value
2022-10-05T00:03:11.400Z,95954.81
2022-10-05T00:06:14.372Z,95946.88
2022-10-05T00:09:20.808Z,95934.88
2022-10-05T00:12:26.802Z,95946.63
2022-10-05T00:15:30.601Z,95942.91
2022-10-05T00:18:34.055Z,95944.25
2022-10-05T00:21:37.542Z,95941.31
2022-10-05T00:24:40.528Z,95946.88
2022-10-05T00:27:47.380Z,95943.69
2022-10-05T00:30:50.356Z,95942.63
2022-10-05T00:33:55.005Z,95951.66
2022-10-05T00:36:57.998Z,95941.03
2022-10-05T00:40:01.011Z,95946.63
2022-10-05T00:43:25.571Z,95944.25
2022-10-05T00:46:39.573Z,95943.19
2022-10-05T00:50:10.731Z,95941.31
2022-10-05T00:53:25.392Z,95941.03
2022-10-05T00:56:52.374Z,95941.03
2022-10-05T01:00:06.386Z,95942.66
2022-10-05T01:03:17.747Z,95949.28
2022-10-05T01:06:30.974Z,95949.56
2022-10-05T01:09:42.618Z,95958.09
2022-10-05T01:12:52.816Z,95969.31
2022-10-05T01:16:05.676Z,95962.34
2022-10-05T01:19:20.129Z,95963.69
2022-10-05T01:22:37.627Z,95965.56
2022-10-05T01:25:52.170Z,95969.03
2022-10-05T01:29:02.490Z,95968.78
2022-10-05T01:32:14.690Z,95975.13
2022-10-05T01:35:31.114Z,95977.00
2022-10-05T01:38:44.954Z,95987.38
2022-10-05T01:42:02.218Z,95986.84
2022-10-05T01:45:13.035Z,95994.03
2022-10-05T01:48:23.626Z,95998.56
2022-10-05T01:51:38.002Z,96008.69
2022-10-05T01:54:51.218Z,96014.78
2022-10-05T01:58:07.663Z,96015.59
2022-10-05T02:01:19.484Z,96016.66
2022-10-05T02:05:00.412Z,96019.88
2022-10-05T02:08:01.313Z,96013.75
2022-10-05T02:11:08.397Z,96022.81
2022-10-05T02:14:13.679Z,96021.47
2022-10-05T02:17:21.282Z,96025.19
2022-10-05T02:20:30.356Z,96024.38
2022-10-05T02:23:37.915Z,96017.22
2022-10-05T02:26:42.828Z,96020.13
2022-10-05T02:29:50.063Z,96027.31
2022-10-05T02:32:59.463Z,96021.19
2022-10-05T02:36:04.018Z,96029.97
2022-10-05T02:39:16.206Z,96020.13
2022-10-05T02:42:28.263Z,96026.25
2022-10-05T02:45:42.740Z,96027.28
2022-10-05T02:48:57.063Z,96036.34
2022-10-05T02:52:08.470Z,96032.34
2022-10-05T02:55:19.234Z,96025.16
2022-10-05T02:58:26.078Z,96020.91
2022-10-05T03:01:33.961Z,96025.16
2022-10-05T03:04:43.594Z,96017.97
2022-10-05T03:07:54.182Z,96020.31
2022-10-05T03:11:07.058Z,96033.56
2022-10-05T03:14:18.468Z,96038.59
2022-10-05T03:17:23.764Z,96037.28
2022-10-05T03:20:40.768Z,96035.66
2022-10-05T03:24:00.839Z,96037.81
2022-10-05T03:27:10.472Z,96028.28
2022-10-05T03:30:17.574Z,96038.31
2022-10-05T03:33:29.042Z,96046.13
2022-10-05T03:36:43.565Z,96045.59
2022-10-05T03:39:53.187Z,96060.78
2022-10-05T03:43:13.210Z,96065.53
2022-10-05T03:46:25.915Z,96066.09
2022-10-05T03:49:41.424Z,96073.03
2022-10-05T03:52:50.076Z,96073.31
2022-10-05T03:55:59.637Z,96078.38
2022-10-05T03:59:10.320Z,96087.69
2022-10-05T04:02:21.156Z,96099.66
2022-10-05T04:05:28.418Z,96099.66
2022-10-05T04:08:45.400Z,96104.44
2022-10-05T04:11:56.583Z,96105.50
2022-10-05T04:15:04.235Z,96096.72
2022-10-05T04:18:15.385Z,96103.91
2022-10-05T04:21:24.172Z,96101.78
2022-10-05T04:24:36.340Z,96102.59
2022-10-05T04:27:43.022Z,96101.53
2022-10-05T04:30:49.442Z,96111.38
2022-10-05T04:34:01.146Z,96100.16
2022-10-05T04:37:08.598Z,96108.16
2022-10-05T04:40:28.111Z,96107.34
2022-10-05T04:43:45.910Z,96110.81
2022-10-05T04:47:05.378Z,96116.66
2022-10-05T04:50:19.110Z,96124.94
2022-10-05T04:53:31.320Z,96126.25
2022-10-05T04:56:39.775Z,96127.59
2022-10-05T05:00:01.709Z,96135.03
2022-10-05T05:03:30.370Z,96131.59
2022-10-05T05:06:39.922Z,96131.03
2022-10-05T05:10:18.546Z,96127.84
2022-10-05T05:13:43.270Z,96129.16
2022-10-05T05:16:49.641Z,96133.16
2022-10-05T05:20:01.811Z,96135.03
2022-10-05T05:23:13.972Z,96145.94
2022-10-05T05:26:28.506Z,96137.41
2022-10-05T05:29:44.720Z,96140.06
2022-10-05T05:32:59.768Z,96145.38
2022-10-05T05:36:33.255Z,96150.19
2022-10-05T05:39:46.871Z,96149.38
2022-10-05T05:42:58.794Z,96150.69
2022-10-05T05:46:08.389Z,96143.00
2022-10-05T05:49:18.018Z,96145.38
2022-10-05T05:52:25.554Z,96152.31
2022-10-05T05:55:34.251Z,96161.91
2022-10-05T05:58:45.015Z,96166.66
2022-10-05T06:01:54.434Z,96161.91
2022-10-05T06:05:04.295Z,96164.00
2022-10-05T06:08:14.410Z,96171.19
2022-10-05T06:11:22.824Z,96166.94
2022-10-05T06:14:30.399Z,96168.25
2022-10-05T06:17:40.860Z,96177.56
2022-10-05T06:20:51.136Z,96181.25
2022-10-05T06:24:00.534Z,96186.84
2022-10-05T06:27:25.731Z,96192.94
2022-10-05T06:30:38.897Z,96199.00
2022-10-05T06:33:48.813Z,96193.66
2022-10-05T06:36:57.410Z,96200.78
2022-10-05T06:40:12.478Z,96206.34
2022-10-05T06:43:43.686Z,96212.16
2022-10-05T06:46:56.507Z,96216.94
2022-10-05T06:50:13.618Z,96217.41
2022-10-05T06:53:32.470Z,96228.09
2022-10-05T06:56:46.440Z,96234.47
2022-10-05T06:59:58.864Z,96240.56
2022-10-05T07:03:10.642Z,96233.31
2022-10-05T07:06:18.095Z,96233.81
2022-10-05T07:09:31.225Z,96221.81
2022-10-05T07:13:00.130Z,96214.03
2022-10-05T07:16:12.582Z,96218.81
2022-10-05T07:19:30.488Z,96227.88
2022-10-05T07:22:48.673Z,96226.25
2022-10-05T07:26:01.380Z,96222.50
2022-10-05T07:29:23.858Z,96219.78
2022-10-05T07:32:35.671Z,96218.44
2022-10-05T07:36:10.224Z,96210.69
2022-10-05T07:39:20.191Z,96206.41
2022-10-05T07:42:32.623Z,96218.66
2022-10-05T07:45:42.337Z,96212.53
2022-10-05T07:48:58.055Z,96219.44
2022-10-05T07:52:06.523Z,96217.00
2022-10-05T07:55:20.011Z,96221.28
2022-10-05T07:58:29.485Z,96216.44
2022-10-05T08:01:36.566Z,96215.38
2022-10-05T08:04:46.351Z,96223.13
2022-10-05T08:07:53.067Z,96227.38
2022-10-05T08:11:03.596Z,96229.78
2022-10-05T08:14:15.525Z,96226.81
2022-10-05T08:17:25.795Z,96228.16
2022-10-05T08:20:36.805Z,96234.53
2022-10-05T08:23:47.500Z,96235.31
2022-10-05T08:26:59.857Z,96235.59
2022-10-05T08:30:06.504Z,96243.09
2022-10-05T08:33:17.850Z,96250.28
2022-10-05T08:36:25.277Z,96240.94
2022-10-05T08:39:31.942Z,96239.38
2022-10-05T08:43:03.130Z,96236.19
2022-10-05T08:46:33.139Z,96234.59
2022-10-05T08:49:58.506Z,96226.81
2022-10-05T08:53:27.735Z,96224.16
2022-10-05T08:56:34.845Z,96223.63
2022-10-05T09:00:03.427Z,96219.09
2022-10-05T09:03:50.137Z,96226.03
2022-10-05T09:07:27.325Z,96223.38
2022-10-05T09:11:03.887Z,96223.94
2022-10-05T09:14:29.508Z,96225.81
2022-10-05T09:18:08.793Z,96228.47
2022-10-05T09:21:23.525Z,96232.22
2022-10-05T09:24:48.592Z,96229.28
2022-10-05T09:27:57.874Z,96227.13
2022-10-05T09:31:24.962Z,96227.91
2022-10-05T09:34:50.251Z,96225.25
2022-10-05T09:38:16.093Z,96223.38
2022-10-05T09:41:49.036Z,96227.63
2022-10-05T09:45:33.754Z,96223.38
2022-10-05T09:49:06.077Z,96230.31
2022-10-05T09:52:20.017Z,96230.59
2022-10-05T09:55:43.328Z,96226.31
2022-10-05T09:59:24.853Z,96221.78
2022-10-05T10:02:53.279Z,96221.00
2022-10-05T10:06:21.414Z,96220.72
2022-10-05T10:09:37.942Z,96222.56
2022-10-05T10:13:01.371Z,96225.53
2022-10-05T10:16:31.739Z,96221.00
2022-10-05T10:20:02.133Z,96214.06
2022-10-05T10:23:23.486Z,96226.88
2022-10-05T10:26:59.430Z,96225.56
2022-10-05T10:30:27.747Z,96227.97
2022-10-05T10:33:55.959Z,96223.44
2022-10-05T10:37:25.349Z,96219.41
2022-10-05T10:40:39.070Z,96211.41
2022-10-05T10:44:15.947Z,96195.69
2022-10-05T10:47:41.592Z,96195.69
2022-10-05T10:51:18.663Z,96187.97
2022-10-05T10:54:37.033Z,96186.38
2022-10-05T10:57:53.236Z,96186.66
2022-10-05T11:01:08.915Z,96189.31
2022-10-05T11:04:41.816Z,96180.81
2022-10-05T11:08:06.194Z,96173.09
2022-10-05T11:11:42.512Z,96160.56
2022-10-05T11:15:27.355Z,96154.72
2022-10-05T11:18:46.876Z,96161.63
2022-10-05T11:22:11.101Z,96154.72
2022-10-05T11:25:49.720Z,96150.19
2022-10-05T11:29:31.689Z,96151.53
2022-10-05T11:33:11.410Z,96151.03
2022-10-05T11:37:01.003Z,96145.47
2022-10-05T11:40:37.830Z,96142.56
2022-10-05T11:44:25.649Z,96140.97
2022-10-05T11:47:32.819Z,96141.50
2022-10-05T11:50:44.295Z,96130.84
2022-10-05T11:53:57.927Z,96139.41
2022-10-05T11:57:07.372Z,96127.44
2022-10-05T12:00:17.405Z,96134.34
2022-10-05T12:03:36.055Z,96122.38
2022-10-05T12:06:54.760Z,96120.00
2022-10-05T12:10:25.568Z,96122.94
2022-10-05T12:13:37.943Z,96111.50
2022-10-05T12:16:48.914Z,96116.03
2022-10-05T12:19:57.813Z,96113.91
2022-10-05T12:23:08.319Z,96115.53
2022-10-05T12:26:17.553Z,96117.13
2022-10-05T12:29:27.557Z,96119.78
2022-10-05T12:32:36.015Z,96126.19
2022-10-05T12:35:48.917Z,96118.19
2022-10-05T12:38:59.077Z,96120.84
2022-10-05T12:42:17.125Z,96124.59
2022-10-05T12:45:34.273Z,96126.75
2022-10-05T12:49:04.612Z,96123.00
2022-10-05T12:52:14.976Z,96127.81
2022-10-05T12:55:26.228Z,96116.09
2022-10-05T12:58:41.116Z,96116.88
2022-10-05T13:01:51.579Z,96120.63
2022-10-05T13:05:00.964Z,96117.97
2022-10-05T13:08:19.124Z,96123.56
2022-10-05T13:11:30.395Z,96123.56
2022-10-05T13:14:49.931Z,96121.69
2022-10-05T13:18:05.915Z,96113.97
2022-10-05T13:21:15.180Z,96115.84
2022-10-05T13:24:23.328Z,96108.94
2022-10-05T13:27:30.627Z,96106.56
2022-10-05T13:30:36.749Z,96097.75
2022-10-05T13:33:55.018Z,96103.09
2022-10-05T13:37:11.163Z,96091.91
2022-10-05T13:40:22.766Z,96090.34
2022-10-05T13:43:33.573Z,96088.47
2022-10-05T13:46:46.978Z,96087.66
2022-10-05T13:49:54.894Z,96073.81
2022-10-05T13:53:03.669Z,96078.09
2022-10-05T13:56:17.020Z,96078.34
2022-10-05T13:59:26.906Z,96074.88
2022-10-05T14:02:37.030Z,96070.88
2022-10-05T14:05:56.433Z,96078.34
2022-10-05T14:09:00.154Z,96075.66
2022-10-05T14:12:20.239Z,96070.34
2022-10-05T14:15:30.645Z,96070.59
2022-10-05T14:18:38.566Z,96072.22
2022-10-05T14:21:49.705Z,96078.88
2022-10-05T14:24:55.845Z,96078.06
2022-10-05T14:28:04.694Z,96082.59
2022-10-05T14:31:15.294Z,96082.59
2022-10-05T14:34:29.325Z,96077.56
2022-10-05T14:37:45.898Z,96081.00
2022-10-05T14:41:04.853Z,96066.09
2022-10-05T14:47:49.101Z,96069.28
2022-10-05T14:50:59.404Z,96068.25
2022-10-05T14:54:04.027Z,96076.53
2022-10-05T14:57:15.955Z,96072.06
2022-10-05T15:00:20.546Z,96067.06
2022-10-05T15:03:41.032Z,96072.66
2022-10-05T15:06:58.450Z,96073.47
2022-10-05T15:10:17.431Z,96073.38
2022-10-05T15:13:23.365Z,96084.75
2022-10-05T15:16:31.387Z,96084.47
2022-10-05T15:19:47.910Z,96075.94
2022-10-05T15:23:02.727Z,96088.13
2022-10-05T15:26:21.052Z,96085.47
2022-10-05T15:29:51.311Z,96094.53
2022-10-05T15:33:09.305Z,96101.16
2022-10-05T15:36:17.686Z,96101.41
2022-10-05T15:39:29.280Z,96113.09
2022-10-05T15:42:38.298Z,96117.34
2022-10-05T15:45:52.973Z,96117.63
2022-10-05T15:49:08.523Z,96114.44
2022-10-05T15:52:23.915Z,96120.84
2022-10-05T15:55:36.598Z,96126.91
2022-10-05T15:58:55.584Z,96137.66
2022-10-05T16:02:01.936Z,96136.78
2022-10-05T16:05:20.051Z,96146.63
2022-10-05T16:08:54.378Z,96147.16
2022-10-05T16:12:12.528Z,96149.81
2022-10-05T16:15:26.490Z,96158.59
2022-10-05T16:18:52.078Z,96160.47
2022-10-05T16:22:02.736Z,96151.69
2022-10-05T16:25:14.179Z,96160.03
2022-10-05T16:28:30.147Z,96164.63
2022-10-05T16:31:38.596Z,96173.19
2022-10-05T16:34:57.821Z,96178.78
2022-10-05T16:38:15.395Z,96184.00
2022-10-05T16:41:29.239Z,96193.03
2022-10-05T16:44:44.540Z,96192.47
2022-10-05T16:47:54.735Z,96195.94
2022-10-05T16:51:17.494Z,96198.31
2022-10-05T16:54:24.487Z,96190.91
2022-10-05T16:57:32.773Z,96197.78
2022-10-05T17:00:52.693Z,96193.25
2022-10-05T17:04:07.242Z,96191.66
2022-10-05T17:07:41.382Z,96201.50
2022-10-05T17:10:58.191Z,96199.13
2022-10-05T17:14:24.466Z,96204.75
2022-10-05T17:17:44.234Z,96205.56
2022-10-05T17:20:54.219Z,96210.06
2022-10-05T17:24:05.082Z,96209.50
2022-10-05T17:27:20.188Z,96202.31
2022-10-05T17:30:53.899Z,96204.69
2022-10-05T17:34:27.551Z,96204.41
2022-10-05T17:37:37.216Z,96209.75
2022-10-05T17:40:41.802Z,96202.03
2022-10-05T17:44:20.122Z,96206.56
2022-10-05T17:48:01.646Z,96215.91
2022-10-05T17:51:34.764Z,96219.34
2022-10-05T17:55:14.290Z,96229.22
2022-10-05T17:59:01.567Z,96224.94
2022-10-05T18:02:17.144Z,96225.72
2022-10-05T18:05:27.837Z,96228.91
2022-10-05T18:08:39.128Z,96232.63
2022-10-05T18:11:44.433Z,96235.59
2022-10-05T18:15:21.344Z,96225.72
2022-10-05T18:18:49.470Z,96235.84
2022-10-05T18:22:08.986Z,96237.72
2022-10-05T18:25:27.290Z,96244.66
2022-10-05T18:28:42.815Z,96243.06
2022-10-05T18:31:54.958Z,96248.91
2022-10-05T18:35:05.237Z,96257.97
2022-10-05T18:38:21.879Z,96246.25
2022-10-05T18:41:40.979Z,96249.19
2022-10-05T18:44:48.362Z,96248.91
2022-10-05T18:48:05.518Z,96254.78
2022-10-05T18:51:21.450Z,96256.66
2022-10-05T18:54:39.506Z,96255.06
2022-10-05T18:58:08.410Z,96252.63
2022-10-05T19:01:36.643Z,96263.84
2022-10-05T19:04:51.656Z,96259.88
2022-10-05T19:08:08.026Z,96258.84
2022-10-05T19:11:19.111Z,96258.06
2022-10-05T19:14:32.818Z,96259.09
2022-10-05T19:17:54.678Z,96259.09
2022-10-05T19:21:07.696Z,96265.75
2022-10-05T19:24:29.722Z,96260.19
2022-10-05T19:27:49.724Z,96264.22
2022-10-05T19:31:08.293Z,96264.22
2022-10-05T19:34:23.218Z,96269.28
2022-10-05T19:37:35.142Z,96272.47
2022-10-05T19:40:43.016Z,96277.81
2022-10-05T19:44:03.278Z,96275.16
2022-10-05T19:47:18.768Z,96278.63
2022-10-05T19:50:28.064Z,96278.91
2022-10-05T19:53:32.604Z,96280.50
2022-10-05T19:56:47.262Z,96275.19
2022-10-05T19:59:50.658Z,96278.13
2022-10-05T20:03:10.496Z,96282.63
2022-10-05T20:06:13.538Z,96289.28
2022-10-05T20:09:22.061Z,96292.22
2022-10-05T20:12:50.640Z,96293.00
2022-10-05T20:16:39.010Z,96293.81
2022-10-05T20:20:01.026Z,96290.59
2022-10-05T20:23:24.366Z,96282.63
2022-10-05T20:27:00.446Z,96289.81
2022-10-05T20:30:03.525Z,96284.75
2022-10-05T20:33:11.672Z,96281.56
2022-10-05T20:36:19.079Z,96287.97
2022-10-05T20:39:22.434Z,96283.44
2022-10-05T20:42:25.483Z,96294.88
2022-10-05T20:45:28.515Z,96302.88
2022-10-05T20:48:31.728Z,96297.53
2022-10-05T20:51:36.384Z,96306.88
2022-10-05T20:54:40.348Z,96304.72
2022-10-05T20:57:43.405Z,96294.63
2022-10-05T21:01:03.899Z,96299.16
2022-10-05T21:04:07.018Z,96300.75
2022-10-05T21:07:11.391Z,96301.53
2022-10-05T21:10:14.556Z,96302.63
2022-10-05T21:13:17.696Z,96300.75
2022-10-05T21:16:21.137Z,96301.25
2022-10-05T21:19:24.233Z,96302.31
2022-10-05T21:22:28.649Z,96300.72
2022-10-05T21:25:31.650Z,96302.56
2022-10-05T21:28:35.240Z,96302.56
2022-10-05T21:31:38.799Z,96300.16
2022-10-05T21:34:42.557Z,96304.16
2022-10-05T21:37:46.946Z,96301.25
2022-10-05T21:40:49.994Z,96309.22
2022-10-05T21:43:53.485Z,96292.19
2022-10-05T21:46:56.854Z,96300.19
2022-10-05T21:50:00.453Z,96295.38
2022-10-05T21:53:06.597Z,96300.97
2022-10-05T21:56:12.972Z,96292.19
2022-10-05T21:59:19.643Z,96287.16
2022-10-05T22:02:22.619Z,96289.00
2022-10-05T22:05:25.671Z,96285.28
2022-10-05T22:08:32.062Z,96286.88
2022-10-05T22:11:35.371Z,96292.75
2022-10-05T22:14:38.342Z,96287.41
2022-10-05T22:17:42.234Z,96294.34
2022-10-05T22:20:45.688Z,96290.59
2022-10-05T22:23:50.455Z,96276.53
2022-10-05T22:26:53.465Z,96289.28
2022-10-05T22:30:00.195Z,96279.19
2022-10-05T22:33:03.423Z,96281.56
2022-10-05T22:36:07.797Z,96291.69
2022-10-05T22:39:12.239Z,96289.03
2022-10-05T22:42:15.268Z,96281.03
2022-10-05T22:45:18.355Z,96283.97
2022-10-05T22:48:21.401Z,96271.19
2022-10-05T22:51:24.393Z,96274.94
2022-10-05T22:54:30.484Z,96273.34
2022-10-05T22:57:39.145Z,96274.63
2022-10-05T23:00:57.563Z,96272.78
2022-10-05T23:04:01.659Z,96264.78
2022-10-05T23:07:04.799Z,96271.75
2022-10-05T23:10:11.728Z,96266.41
2022-10-05T23:13:15.054Z,96264.00
2022-10-05T23:16:19.694Z,96265.34
2022-10-05T23:19:23.865Z,96266.41
2022-10-05T23:22:26.869Z,96262.69
2022-10-05T23:25:31.219Z,96270.91
2022-10-05T23:28:34.607Z,96274.66
2022-10-05T23:31:37.683Z,96276.25
2022-10-05T23:34:40.703Z,96274.91
2022-10-05T23:37:45.372Z,96275.44
2022-10-05T23:40:49.745Z,96277.56
2022-10-05T23:43:54.740Z,96276.78
2022-10-05T23:46:57.701Z,96278.91
2022-10-05T23:50:00.741Z,96269.06
2022-10-05T23:53:03.933Z,96272.00
2022-10-05T23:56:08.684Z,96271.72
2022-10-05T23:59:11.814Z,96277.31
